Time;durP1;ratioP1;P1;durP2;ratioP2;P2;SDS_P1;SDS_P2;PMS_P1;PMS_P2;Temp;Humidity;BMP_temperature;BMP_pressure;BME280_temperature;BME280_humidity;BME280_pressure;Samples;Min_cycle;Max_cycle;Signal;HPM_P1;HPM_P2
2022/10/03 00:00:08;;;;;;;2.60;0.90;;;15.20;58.50;;;14.26;59.67;101361.97;12257483;19;20025;-84
2022/10/03 00:05:13;;;;;;;3.03;1.25;;;15.30;58.60;;;14.30;59.63;101387.13;12256182;19;20021;-84
2022/10/03 00:09:41;;;;;;;3.00;1.00;;;15.30;58.60;;;14.39;59.58;101392.66;12253520;19;20014;-84
2022/10/03 00:14:21;;;;;;;2.92;1.08;;;15.30;59.00;;;14.35;59.50;101393.78;12280164;19;20027;-85
2022/10/03 00:19:00;;;;;;;3.40;1.17;;;15.30;58.70;;;14.34;59.75;101392.09;12269604;19;20345;-84
2022/10/03 00:23:17;;;;;;;5.72;1.30;;;15.30;58.80;;;14.42;59.68;101403.91;12266440;19;20419;-84
2022/10/03 00:28:01;;;;;;;5.55;1.08;;;15.30;58.80;;;14.28;59.78;101391.59;12264242;19;20090;-85
2022/10/03 00:32:50;;;;;;;5.38;1.90;;;15.30;58.90;;;14.44;59.74;101410.75;12265335;19;20022;-84
2022/10/03 00:37:35;;;;;;;4.05;1.10;;;15.40;58.90;;;14.14;59.78;101353.88;12261508;19;20462;-84
2022/10/03 00:42:34;;;;;;;1.60;1.50;;;15.40;58.90;;;14.37;59.68;101394.53;12265342;19;20014;-84
2022/10/03 00:46:59;;;;;;;5.07;1.10;;;15.40;58.90;;;14.50;59.76;101415.66;12263454;19;20015;-84
2022/10/03 00:51:59;;;;;;;5.55;1.23;;;15.40;59.00;;;14.49;59.90;101421.84;12266588;19;20002;-84
2022/10/03 00:56:40;;;;;;;3.35;1.05;;;15.40;58.90;;;14.42;59.98;101398.66;12261618;19;20041;-84
2022/10/03 01:00:50;;;;;;;2.45;1.05;;;15.50;59.00;;;14.49;59.75;101413.97;12260982;19;20523;-84
2022/10/03 01:05:08;;;;;;;3.47;2.03;;;15.50;59.00;;;14.47;59.96;101394.81;12261059;19;20018;-84
2022/10/03 01:09:19;;;;;;;3.35;1.10;;;15.70;59.00;;;14.62;59.99;101422.00;12255346;19;20011;-84
2022/10/03 01:14:11;;;;;;;6.25;1.20;;;15.60;58.90;;;14.62;60.00;101422.00;12259983;19;20035;-84
2022/10/03 01:18:30;;;;;;;5.97;0.98;;;15.60;58.90;;;14.44;59.88;101389.75;12257411;19;20415;-84
2022/10/03 01:23:29;;;;;;;3.90;1.13;;;15.60;58.80;;;14.65;59.98;101426.22;12258813;19;20472;-84
2022/10/03 01:33:01;;;;;;;4.00;1.30;;;15.60;58.70;;;14.48;59.96;101407.03;12256177;19;20484;-84
2022/10/03 01:37:35;;;;;;;7.03;1.20;;;15.60;58.80;;;14.58;60.00;101436.25;12255123;19;20052;-84
2022/10/03 01:42:05;;;;;;;2.05;0.77;;;15.60;58.80;;;14.55;60.05;101437.28;12256061;19;20018;-84
2022/10/03 01:46:50;;;;;;;2.38;0.73;;;15.60;58.80;;;14.51;59.89;101441.00;12251622;19;20425;-84
2022/10/03 01:50:52;;;;;;;3.33;1.02;;;15.60;58.80;;;14.64;60.06;101461.34;12253123;19;20027;-84
2022/10/03 01:55:22;;;;;;;4.10;0.98;;;15.90;59.10;;;14.53;60.20;101438.31;12255339;19;20462;-84
2022/10/03 01:59:58;;;;;;;3.72;1.17;;;15.60;58.80;;;14.61;60.01;101459.75;12251322;19;20018;-84
2022/10/03 02:04:28;;;;;;;3.83;0.90;;;15.60;58.90;;;14.51;60.11;101446.25;12252566;19;20014;-84
2022/10/03 02:09:02;;;;;;;2.72;1.10;;;15.60;58.90;;;14.54;60.06;101455.78;12250003;19;20043;-84
2022/10/03 02:13:22;;;;;;;2.53;1.05;;;15.60;58.90;;;14.65;59.99;101469.13;12253428;19;20015;-84
2022/10/03 02:18:02;;;;;;;2.45;1.00;;;15.60;58.90;;;14.44;59.96;101441.47;12251391;19;20114;-84
2022/10/03 02:22:50;;;;;;;5.45;0.88;;;15.80;58.90;;;14.56;60.20;101457.38;12269815;19;20030;-85
2022/10/03 02:27:42;;;;;;;4.38;1.13;;;15.60;58.80;;;14.65;60.10;101476.16;12267678;19;20074;-85
2022/10/03 02:32:27;;;;;;;3.35;1.48;;;15.60;58.80;;;14.65;60.20;101465.66;12266706;19;20349;-85
2022/10/03 02:37:06;;;;;;;4.25;1.38;;;15.60;58.90;;;14.62;60.16;101471.09;12264781;19;20011;-85
2022/10/03 02:41:18;;;;;;;2.45;0.95;;;15.60;58.80;;;14.64;60.18;101480.56;12262624;19;20006;-84
2022/10/03 02:46:11;;;;;;;2.28;1.02;;;15.60;58.90;;;14.55;60.14;101467.97;12262679;19;20019;-85
2022/10/03 02:50:47;;;;;;;3.03;1.00;;;15.60;58.90;;;14.67;60.10;101479.56;12260325;19;20014;-84
2022/10/03 02:55:46;;;;;;;5.60;1.15;;;15.60;58.90;;;14.70;60.23;101495.13;12260361;19;20019;-85
2022/10/03 03:00:07;;;;;;;2.20;0.90;;;15.60;58.90;;;14.69;60.18;101482.91;12259217;19;20007;-85
2022/10/03 03:05:04;;;;;;;3.83;0.80;;;15.80;58.80;;;14.72;60.02;101493.28;12255872;19;20010;-84
2022/10/03 03:09:49;;;;;;;3.97;1.20;;;15.70;58.80;;;14.70;60.20;101493.34;12256476;19;20028;-84
2022/10/03 03:14:28;;;;;;;4.30;1.00;;;15.70;58.80;;;14.72;60.22;101502.00;12256971;19;20010;-85
2022/10/03 03:19:03;;;;;;;2.75;1.02;;;15.70;58.70;;;14.53;60.01;101461.97;12255884;19;20026;-85
2022/10/03 03:23:49;;;;;;;2.17;0.93;;;15.70;58.70;;;14.75;60.24;101499.19;12254338;19;20067;-85
2022/10/03 03:28:42;;;;;;;4.00;1.00;;;15.70;58.60;;;14.77;60.14;101504.31;12251576;19;20044;-85
2022/10/03 03:33:11;;;;;;;1.02;0.52;;;15.70;58.50;;;14.69;60.16;101493.41;12250469;19;20340;-84
2022/10/03 03:37:32;;;;;;;3.97;0.75;;;15.70;58.50;;;14.50;60.00;101462.97;12247935;19;20022;-84
2022/10/03 03:42:24;;;;;;;3.30;0.88;;;15.70;58.40;;;14.77;60.15;101504.31;12247800;19;20042;-84
2022/10/03 03:47:10;;;;;;;2.80;1.00;;;15.80;58.50;;;14.76;60.20;101513.16;12249694;19;20757;-85
2022/10/03 03:52:05;;;;;;;2.30;0.88;;;15.70;58.50;;;14.55;60.13;101476.69;12249087;19;20010;-85
2022/10/03 03:57:06;;;;;;;3.17;1.00;;;15.80;58.50;;;14.76;60.03;101513.16;12245120;19;20022;-85
2022/10/03 04:01:40;;;;;;;2.92;0.63;;;15.70;58.40;;;14.78;60.20;101517.41;12249691;19;20044;-84
2022/10/03 04:06:22;;;;;;;2.75;0.90;;;15.80;58.50;;;14.79;60.11;101526.13;12248659;19;20007;-84
2022/10/03 04:10:43;;;;;;;6.38;1.10;;;15.70;58.50;;;14.79;60.01;101518.22;12249567;19;20033;-84
2022/10/03 04:15:10;;;;;;;2.78;0.85;;;15.80;58.40;;;14.72;60.00;101516.94;12246347;19;20014;-84
2022/10/03 04:20:06;;;;;;;3.42;0.90;;;15.80;58.40;;;14.77;60.10;101520.97;12243692;19;20021;-84
2022/10/03 04:24:35;;;;;;;2.13;0.90;;;15.80;58.40;;;14.69;60.16;101523.22;12244733;19;20482;-84
2022/10/03 04:29:11;;;;;;;5.18;1.20;;;15.80;58.40;;;14.83;60.28;101539.00;12245705;19;20043;-84
2022/10/03 04:33:55;;;;;;;3.38;0.70;;;15.80;58.40;;;14.80;60.08;101538.34;12265155;19;20017;-84
2022/10/03 04:38:43;;;;;;;4.50;0.95;;;15.80;58.40;;;14.65;60.09;101505.06;12268501;19;20023;-85
2022/10/03 04:43:04;;;;;;;2.65;0.77;;;15.70;58.30;;;14.68;59.99;101523.28;12269956;19;20011;-85
2022/10/03 04:47:15;;;;;;;2.53;1.10;;;15.80;58.30;;;14.75;60.21;101522.00;12266000;19;20026;-84
2022/10/03 04:52:15;;;;;;;5.07;1.08;;;15.70;58.30;;;14.45;60.25;101483.44;12267393;19;20100;-84
2022/10/03 04:56:53;;;;;;;3.33;0.90;;;15.80;58.40;;;14.72;60.08;101523.03;12259441;19;20015;-85
2022/10/03 05:01:43;;;;;;;2.22;1.00;;;15.80;58.40;;;14.78;60.11;101535.78;12263598;19;20464;-84
2022/10/03 05:05:59;;;;;;;3.58;1.40;;;15.80;58.40;;;14.71;60.12;101526.56;12260332;19;20013;-84
2022/10/03 05:10:25;;;;;;;;;;;15.80;58.50;;;14.75;60.13;101537.78;12261787;19;20011;-84
2022/10/03 05:15:00;;;;;;;3.90;1.25;;;15.70;58.30;;;14.76;60.20;101540.28;12255456;19;19910;-84
2022/10/03 05:19:50;;;;;;;3.85;1.10;;;15.80;58.40;;;14.75;60.08;101543.03;12260087;19;20037;-84
2022/10/03 05:24:11;;;;;;;3.25;1.20;;;15.70;58.40;;;14.70;60.11;101540.66;12255481;19;20014;-84
2022/10/03 05:28:53;;;;;;;2.08;0.80;;;15.70;58.40;;;14.76;60.06;101557.88;12254571;19;20025;-85
2022/10/03 05:33:16;;;;;;;3.45;1.10;;;15.80;58.40;;;14.76;60.22;101561.31;12258177;19;20368;-85
2022/10/03 05:37:43;;;;;;;4.50;1.00;;;15.70;58.50;;;14.77;60.17;101564.81;12254255;19;20002;-85
2022/10/03 05:42:35;;;;;;;4.20;1.20;;;15.70;58.40;;;14.77;60.15;101575.31;12255540;19;20022;-84
2022/10/03 05:47:43;;;;;;;2.50;0.73;;;15.80;58.40;;;14.78;60.11;101585.75;12254374;19;20717;-84
2022/10/03 05:51:59;;;;;;;4.72;1.70;;;15.80;58.50;;;14.62;60.20;101549.94;12252619;19;20007;-84
2022/10/03 05:56:18;;;;;;;4.65;1.10;;;15.80;58.50;;;14.85;60.14;101580.97;12251745;19;20027;-84
2022/10/03 06:00:32;;;;;;;4.75;1.30;;;15.80;58.40;;;14.84;60.18;101589.81;12252848;19;20151;-84
2022/10/03 06:04:55;;;;;;;3.65;0.90;;;15.80;58.40;;;14.84;60.15;101589.81;12252706;19;20085;-84
2022/10/03 06:09:24;;;;;;;6.07;1.02;;;15.80;58.40;;;14.83;60.25;101606.53;12253539;19;20085;-85
2022/10/03 06:14:06;;;;;;;4.70;1.65;;;15.80;58.50;;;14.88;60.15;101611.50;12249434;19;20010;-84
2022/10/03 06:18:45;;;;;;;3.45;1.15;;;15.80;58.30;;;14.86;60.03;101611.59;12248853;19;20019;-85
2022/10/03 06:23:09;;;;;;;3.60;1.02;;;15.80;58.30;;;14.87;59.95;101621.19;12252556;19;20010;-84
2022/10/03 06:27:41;;;;;;;4.20;1.17;;;16.00;58.30;;;14.86;60.12;101624.75;12248563;19;20010;-84
2022/10/03 06:32:03;;;;;;;6.22;1.20;;;15.80;58.30;;;14.88;60.29;101635.16;12250412;19;20010;-83
2022/10/03 06:36:23;;;;;;;2.63;0.77;;;15.80;58.30;;;14.90;60.19;101646.44;12247197;19;20775;-84
2022/10/03 06:41:07;;;;;;;3.97;1.20;;;15.80;58.40;;;14.81;60.13;101632.91;12274329;19;20018;-84
2022/10/03 06:45:23;;;;;;;3.78;1.00;;;15.90;58.40;;;14.92;60.03;101652.47;12264312;19;20021;-84
2022/10/03 06:50:07;;;;;;;2.63;0.82;;;15.90;58.40;;;14.93;60.17;101651.53;12264735;19;20107;-85
2022/10/03 06:54:30;;;;;;;1.83;0.70;;;15.90;58.50;;;14.96;59.92;101651.34;12265157;19;20031;-85
2022/10/03 06:58:58;;;;;;;2.90;1.05;;;15.90;58.40;;;14.89;60.01;101642.13;12266380;19;20038;-84
2022/10/03 07:03:25;;;;;;;7.97;1.25;;;15.90;58.40;;;15.01;60.16;101657.19;12261943;19;20006;-84
2022/10/03 07:07:51;;;;;;;2.83;0.85;;;15.90;58.30;;;14.98;60.08;101655.56;12252432;19;20356;-84
2022/10/03 07:12:32;;;;;;;1.67;1.05;;;15.90;58.30;;;14.92;60.09;101649.84;12252933;19;20030;-83
2022/10/03 07:17:03;;;;;;;7.07;1.10;;;15.90;58.30;;;15.02;60.18;101667.63;12246681;19;20038;-83
2022/10/03 07:21:53;;;;;;;4.57;1.10;;;16.10;58.40;;;15.03;60.04;101671.94;12251676;19;20352;-83
2022/10/03 07:26:41;;;;;;;2.35;0.73;;;16.00;58.40;;;15.04;60.09;101670.16;12251493;19;20029;-83
2022/10/03 07:31:13;;;;;;;4.50;1.20;;;16.00;58.40;;;15.12;60.11;101680.22;12250842;19;20015;-83
2022/10/03 07:41:14;;;;;;;2.55;0.80;;;16.10;58.30;;;15.09;60.11;101678.63;12247344;19;20014;-82
2022/10/03 07:45:39;;;;;;;4.43;1.10;;;16.10;58.10;;;15.17;60.17;101688.69;12247101;19;20356;-83
2022/10/03 07:49:57;;;;;;;3.30;0.95;;;16.10;58.60;;;15.13;60.17;101687.19;12247312;19;20014;-81
2022/10/03 07:54:41;;;;;;;2.25;0.88;;;16.20;58.20;;;15.23;60.22;101696.25;12245739;19;20022;-81
2022/10/03 07:59:21;;;;;;;4.90;1.10;;;16.20;58.20;;;15.27;60.10;101703.00;12246386;19;20476;-82
2022/10/03 08:03:55;;;;;;;4.05;1.10;;;16.20;58.20;;;15.22;60.13;101698.00;12246613;19;20037;-81
2022/10/03 08:08:30;;;;;;;2.60;1.10;;;16.30;58.10;;;15.17;60.27;101684.28;12245495;19;20003;-82
2022/10/03 08:13:10;;;;;;;7.13;1.20;;;16.30;58.10;;;15.39;60.21;101711.94;12256343;19;20010;-81
2022/10/03 08:17:45;;;;;;;10.02;1.65;;;16.40;58.10;;;15.42;60.00;101722.31;12253970;19;20007;-82
2022/10/03 08:22:15;;;;;;;4.73;1.20;;;16.40;58.00;;;15.47;60.09;101730.75;12258369;19;20018;-81
2022/10/03 08:27:01;;;;;;;3.78;0.98;;;16.50;57.90;;;15.49;60.04;101739.44;12256728;19;20275;-81
2022/10/03 08:31:09;;;;;;;2.33;0.98;;;16.50;57.90;;;15.56;60.08;101734.66;12253954;19;20437;-83
2022/10/03 08:36:00;;;;;;;2.97;1.00;;;16.70;57.90;;;15.58;60.05;101738.03;12256596;19;20010;-83
2022/10/03 08:40:38;;;;;;;2.45;0.75;;;16.50;57.80;;;15.59;60.12;101740.56;12260822;19;20014;-83
2022/10/03 08:45:03;;;;;;;5.53;1.20;;;16.60;57.60;;;15.66;60.05;101741.91;12273853;19;20381;-83
2022/10/03 08:49:35;;;;;;;3.55;1.10;;;16.60;57.80;;;15.78;60.01;101745.63;12272020;19;20013;-84
2022/10/03 08:54:12;;;;;;;5.40;2.00;;;16.70;57.90;;;15.95;60.00;101746.38;12268772;19;20018;-84
2022/10/03 08:58:34;;;;;;;3.40;1.08;;;16.80;57.60;;;16.02;60.22;101742.44;12268939;19;20010;-86
2022/10/03 09:03:14;;;;;;;4.80;1.05;;;17.00;57.50;;;16.13;59.93;101750.50;12263442;19;20022;-83
2022/10/03 09:08:18;;;;;;;1.55;0.77;;;17.40;57.30;;;16.18;59.87;101756.34;12260472;19;20023;-83
2022/10/03 09:13:19;;;;;;;2.88;1.05;;;17.20;57.10;;;16.19;59.83;101744.00;12265231;19;20021;-83
2022/10/03 09:18:06;;;;;;;7.72;1.60;;;17.20;56.90;;;16.09;59.80;101725.28;12265273;19;20021;-83
2022/10/03 09:22:23;;;;;;;3.53;1.00;;;17.30;56.60;;;16.30;59.91;101747.66;12266958;19;20014;-85
2022/10/03 09:26:51;;;;;;;5.32;1.13;;;17.30;57.10;;;16.31;59.87;101749.38;12264330;19;20026;-86
2022/10/03 09:31:03;;;;;;;2.97;0.82;;;17.40;56.90;;;16.37;59.84;101732.31;12259318;19;20026;-85
2022/10/03 09:35:33;;;;;;;5.28;1.30;;;17.50;56.70;;;16.66;59.60;101758.59;12259247;19;20155;-85
2022/10/03 09:40:03;;;;;;;5.28;0.82;;;17.60;56.60;;;16.72;59.45;101743.22;12260397;19;20018;-85
2022/10/03 09:45:04;;;;;;;4.03;1.20;;;17.70;56.30;;;16.63;59.56;101716.59;12261769;19;20014;-85
2022/10/03 09:49:24;;;;;;;3.00;0.90;;;17.80;56.30;;;16.83;59.51;101744.38;12253760;19;20014;-86
2022/10/03 09:54:03;;;;;;;4.28;1.65;;;17.90;56.20;;;16.85;59.34;101742.44;12261496;19;20006;-85
2022/10/03 09:58:44;;;;;;;5.82;1.23;;;18.20;56.10;;;16.80;59.39;101716.38;12265600;19;20090;-86
2022/10/03 10:03:35;;;;;;;3.67;1.00;;;18.00;55.90;;;17.19;59.41;101764.81;12269098;19;20035;-87
2022/10/03 10:08:10;;;;;;;4.75;1.33;;;18.20;56.00;;;17.30;59.29;101749.13;12264297;19;20010;-86
2022/10/03 10:13:00;;;;;;;6.25;1.25;;;18.30;56.00;;;17.39;59.04;101755.56;12270244;19;20018;-85
2022/10/03 10:17:55;;;;;;;3.72;1.00;;;18.40;55.50;;;17.25;58.71;101736.25;12259994;19;20011;-86
2022/10/03 10:22:15;;;;;;;4.68;0.93;;;18.50;55.10;;;17.45;58.97;101765.72;12265519;19;20029;-85
2022/10/03 10:26:56;;;;;;;2.95;0.95;;;18.50;55.50;;;17.35;58.80;101733.81;12263085;19;20019;-85
2022/10/03 10:31:43;;;;;;;4.28;1.20;;;18.60;55.40;;;17.52;58.98;101758.22;12264871;19;20026;-85
2022/10/03 10:36:51;;;;;;;4.15;1.10;;;18.60;55.30;;;17.61;58.94;101758.47;12263905;19;20034;-85
2022/10/03 10:41:53;;;;;;;4.32;1.20;;;18.60;55.20;;;17.67;58.83;101757.19;12262112;19;20018;-85
2022/10/03 10:46:26;;;;;;;4.78;1.25;;;18.70;55.30;;;17.73;58.59;101748.00;12252444;19;20503;-83
2022/10/03 10:51:24;;;;;;;3.08;1.10;;;18.90;55.10;;;17.80;58.63;101752.78;12254274;19;20037;-85
2022/10/03 10:56:19;;;;;;;3.80;1.10;;;18.80;54.80;;;17.89;58.62;101736.28;12270861;19;20094;-85
2022/10/03 11:00:40;;;;;;;7.68;1.13;;;18.90;54.30;;;18.01;58.52;101750.44;12268142;19;20027;-85
2022/10/03 11:05:35;;;;;;;3.03;1.20;;;19.00;54.90;;;18.08;58.42;101759.63;12267601;19;20029;-85
2022/10/03 11:10:21;;;;;;;3.45;0.98;;;19.10;54.60;;;17.68;58.40;101688.38;12263934;19;20015;-87
2022/10/03 11:14:47;;;;;;;4.05;1.45;;;19.10;54.50;;;18.07;58.08;101723.56;12263882;19;20464;-86
2022/10/03 11:19:25;;;;;;;2.15;0.82;;;19.20;54.20;;;18.23;58.21;101752.41;12260088;19;20023;-85
2022/10/03 11:24:10;;;;;;;4.35;1.15;;;19.20;54.40;;;18.30;58.05;101758.94;12262713;19;20021;-83
2022/10/03 11:28:49;;;;;;;2.80;0.95;;;19.30;54.40;;;18.41;58.25;101746.75;12255256;19;20025;-85
2022/10/03 11:33:15;;;;;;;3.90;0.95;;;19.40;54.50;;;18.51;57.75;101755.72;12257656;19;20684;-84
2022/10/03 11:37:43;;;;;;;;;;;19.50;54.10;;;18.48;57.92;101751.50;12253995;19;20018;-83
2022/10/03 11:41:59;;;;;;;3.28;0.93;;;19.60;55.10;;;18.54;57.91;101751.03;12259424;19;19926;-84
2022/10/03 11:46:51;;;;;;;2.55;0.90;;;19.60;54.20;;;18.27;57.61;101695.69;12266200;19;20035;-84
2022/10/03 11:51:06;;;;;;;7.43;1.30;;;19.60;54.70;;;18.50;57.53;101736.38;12257031;19;20509;-84
2022/10/03 11:55:29;;;;;;;2.63;1.02;;;19.60;54.50;;;18.61;57.59;101750.63;12259366;19;20006;-84
2022/10/03 12:00:14;;;;;;;3.30;0.90;;;19.60;54.40;;;18.60;57.47;101746.25;12266872;19;20014;-85
2022/10/03 12:04:33;;;;;;;2.60;0.98;;;19.60;54.10;;;18.64;57.62;101743.28;12261830;19;20014;-84
2022/10/03 12:08:54;;;;;;;2.70;0.85;;;19.60;54.20;;;18.54;57.51;101735.16;12257432;19;20023;-85
2022/10/03 12:12:58;;;;;;;2.95;0.80;;;19.90;54.20;;;18.55;57.17;101752.75;12262586;19;20014;-85
2022/10/03 12:17:35;;;;;;;2.00;0.80;;;19.80;54.40;;;18.37;57.16;101738.19;12256333;19;20018;-85
2022/10/03 12:22:06;;;;;;;1.75;0.90;;;19.50;54.90;;;18.44;57.44;101755.31;12258286;19;20022;-85
2022/10/03 12:26:20;;;;;;;2.50;0.80;;;19.50;55.10;;;18.44;57.51;101739.44;12257423;19;20014;-88
2022/10/03 12:30:23;;;;;;;3.50;1.92;;;19.40;55.10;;;18.13;57.32;101680.84;12258374;19;20010;-85
2022/10/03 12:34:37;;;;;;;4.00;0.88;;;19.40;54.70;;;18.45;57.41;101743.78;12256396;19;20400;-85
2022/10/03 12:39:10;;;;;;;2.55;0.90;;;19.40;54.90;;;18.46;57.51;101753.41;12256821;19;20014;-86
2022/10/03 12:43:55;;;;;;;3.03;1.40;;;19.40;54.60;;;18.43;57.32;101740.41;12258470;19;20365;-83
2022/10/03 12:48:32;;;;;;;2.30;1.00;;;19.40;54.90;;;18.57;57.10;101748.16;12251631;19;20448;-84
2022/10/03 12:52:53;;;;;;;2.47;0.75;;;19.50;54.70;;;18.55;57.13;101734.22;12263353;19;20015;-87
2022/10/03 12:57:18;;;;;;;2.90;0.82;;;19.50;54.90;;;18.62;57.08;101739.06;12256052;19;20007;-83
2022/10/03 13:01:47;;;;;;;2.63;0.80;;;19.50;54.60;;;18.64;57.21;101739.81;12272422;19;20018;-85
2022/10/03 13:06:12;;;;;;;2.00;1.00;;;19.60;54.40;;;18.64;57.08;101745.09;12265409;19;20011;-84
2022/10/03 13:10:46;;;;;;;2.38;0.90;;;19.60;54.80;;;18.45;57.12;101704.09;12261751;19;20031;-85
2022/10/03 13:16:05;;;;;;;1.67;0.90;;;19.60;54.70;;;18.59;56.97;101724.25;12255457;19;20022;-84
2022/10/03 13:20:25;;;;;;;2.38;0.95;;;19.60;54.60;;;18.64;57.02;101714.19;12256264;19;20063;-84
2022/10/03 13:24:45;;;;;;;4.03;1.10;;;19.60;54.40;;;18.77;57.11;101728.25;12258693;19;20388;-85
2022/10/03 13:29:16;;;;;;;2.13;1.10;;;19.80;54.60;;;18.83;57.09;101734.03;12259391;19;20050;-85
2022/10/03 13:33:36;;;;;;;1.90;0.88;;;19.70;54.30;;;18.79;56.95;101720.16;12262442;19;20018;-86
2022/10/03 13:38:30;;;;;;;2.47;0.88;;;19.80;54.40;;;18.85;56.79;101730.31;12249058;19;20349;-86
2022/10/03 13:42:46;;;;;;;3.53;0.60;;;19.80;54.60;;;18.94;56.98;101729.63;12257784;19;20022;-86
2022/10/03 13:47:31;;;;;;;2.65;0.90;;;19.90;54.00;;;18.92;56.77;101725.41;12256730;19;20033;-85
2022/10/03 13:51:43;;;;;;;1.65;0.80;;;19.90;54.00;;;18.94;56.78;101732.28;12254788;19;20078;-85
2022/10/03 13:55:56;;;;;;;1.35;1.05;;;19.90;53.90;;;18.68;56.61;101696.28;12254732;19;20014;-85
2022/10/03 14:00:21;;;;;;;0.65;0.65;;;19.80;53.70;;;18.73;56.23;101712.66;12255784;19;20014;-82
2022/10/03 14:04:37;;;;;;;2.20;0.88;;;19.80;53.80;;;18.80;56.59;101740.41;12260826;19;20011;-85
2022/10/03 14:09:35;;;;;;;3.45;0.80;;;20.00;53.70;;;18.77;56.29;101738.81;12252933;19;20019;-84
2022/10/03 14:14:23;;;;;;;3.92;0.75;;;19.70;53.80;;;18.67;56.42;101726.34;12257209;19;20010;-84
2022/10/03 14:19:11;;;;;;;1.25;0.68;;;19.70;53.80;;;18.78;56.49;101744.97;12254374;19;20018;-85
2022/10/03 14:23:31;;;;;;;1.00;0.70;;;19.70;53.80;;;18.78;56.41;101731.72;12256545;19;20011;-85
2022/10/03 14:27:59;;;;;;;2.75;0.93;;;19.70;53.80;;;18.77;56.26;101725.59;12253449;19;20016;-84
2022/10/03 14:32:32;;;;;;;0.90;0.70;;;19.70;53.30;;;18.72;56.41;101729.50;12252916;19;20021;-84
2022/10/03 14:37:01;;;;;;;5.85;1.25;;;19.90;53.20;;;18.39;56.12;101664.91;12254588;19;20007;-84
2022/10/03 14:41:08;;;;;;;5.43;1.05;;;19.70;52.80;;;18.80;55.86;101727.16;12257070;19;20028;-84
2022/10/03 14:45:22;;;;;;;4.28;1.10;;;19.70;52.70;;;18.72;55.96;101709.19;12256995;19;20033;-84
2022/10/03 14:49:31;;;;;;;2.67;0.98;;;19.70;52.80;;;18.84;56.03;101723.31;12260636;19;20009;-84
2022/10/03 14:53:33;;;;;;;3.75;0.90;;;19.70;53.00;;;18.87;55.58;101732.84;12253574;19;20014;-83
2022/10/03 14:57:48;;;;;;;3.35;0.93;;;19.80;53.00;;;18.86;55.72;101728.50;12249109;19;20345;-84
2022/10/03 15:01:56;;;;;;;2.03;0.80;;;20.00;52.90;;;18.82;55.72;101727.88;12247735;19;20023;-84
2022/10/03 15:06:32;;;;;;;2.80;1.00;;;19.70;52.80;;;18.67;55.55;101713.97;12255687;19;20058;-85
2022/10/03 15:10:35;;;;;;;2.92;0.90;;;19.70;52.80;;;18.73;55.76;101715.31;12263398;19;20011;-84
2022/10/03 15:14:44;;;;;;;2.15;1.00;;;19.70;53.10;;;18.74;55.56;101716.97;12256067;19;20074;-84
2022/10/03 15:18:59;;;;;;;1.55;0.85;;;19.90;53.40;;;18.71;55.62;101722.50;12257336;19;20018;-82
2022/10/03 15:23:07;;;;;;;6.18;1.30;;;19.70;53.30;;;18.73;55.68;101716.16;12253064;19;20441;-85
2022/10/03 15:27:19;;;;;;;1.25;0.60;;;19.70;53.50;;;18.74;55.59;101728.47;12251706;19;20082;-85
2022/10/03 15:31:36;;;;;;;3.85;1.00;;;19.60;53.30;;;18.77;55.43;101719.47;12252638;19;20019;-85
2022/10/03 15:35:42;;;;;;;2.67;0.90;;;19.80;53.40;;;18.78;55.61;101718.50;12252769;19;20018;-87
2022/10/03 15:39:46;;;;;;;2.75;0.90;;;19.60;53.30;;;18.79;55.43;101733.41;12255848;19;20089;-85
2022/10/03 15:44:15;;;;;;;2.20;0.85;;;19.80;53.00;;;18.56;55.31;101705.97;12255159;19;20029;-86
2022/10/03 15:48:20;;;;;;;4.28;1.10;;;19.60;53.10;;;18.47;55.13;101699.56;12250991;19;20455;-85
2022/10/03 15:52:57;;;;;;;3.65;0.85;;;19.80;53.10;;;18.17;55.20;101649.72;12250771;19;20015;-85
2022/10/03 15:57:01;;;;;;;5.68;1.17;;;19.50;53.00;;;18.33;55.26;101695.28;12250199;19;20022;-86
2022/10/03 16:01:20;;;;;;;3.30;1.57;;;19.70;53.10;;;18.56;55.24;101733.25;12249797;19;20078;-86
2022/10/03 16:05:24;;;;;;;2.75;0.80;;;19.40;53.00;;;18.50;55.25;101727.59;12251365;19;20302;-84
2022/10/03 16:10:00;;;;;;;3.22;1.15;;;19.50;53.10;;;18.50;55.29;101725.78;12251176;19;20003;-84
2022/10/03 16:14:22;;;;;;;2.55;0.95;;;19.40;53.00;;;18.54;55.51;101743.09;12251413;19;20031;-84
2022/10/03 16:18:50;;;;;;;3.13;0.95;;;19.40;53.30;;;18.37;55.26;101734.72;12248438;19;20018;-84
2022/10/03 16:22:56;;;;;;;5.18;1.65;;;19.30;53.30;;;18.36;55.25;101728.56;12246983;19;20021;-85
2022/10/03 16:27:23;;;;;;;2.90;1.50;;;19.50;53.70;;;18.15;55.08;101704.53;12252506;19;20078;-84
2022/10/03 16:31:36;;;;;;;5.30;1.20;;;19.30;54.00;;;18.42;55.43;101748.47;12269083;19;20007;-84
2022/10/03 16:35:47;;;;;;;3.45;1.45;;;19.20;54.00;;;18.33;55.26;101731.44;12266993;19;20468;-84
2022/10/03 16:40:01;;;;;;;1.95;1.75;;;19.20;54.10;;;18.16;55.41;101710.66;12259084;19;20127;-85
2022/10/03 16:44:17;;;;;;;3.05;2.35;;;19.10;54.30;;;18.07;55.45;101691.84;12258543;19;20370;-84
2022/10/03 16:52:52;;;;;;;3.25;1.73;;;19.20;54.20;;;18.32;55.46;101737.69;12259306;19;20010;-82
2022/10/03 16:56:59;;;;;;;2.83;1.67;;;19.10;54.10;;;18.19;55.34;101728.94;12253506;19;20412;-82
2022/10/03 17:01:13;;;;;;;2.95;1.77;;;19.00;54.00;;;18.26;55.41;101733.69;12256204;19;20468;-84
2022/10/03 17:05:16;;;;;;;5.53;1.33;;;19.30;54.20;;;18.02;55.29;101699.25;12256450;19;20479;-84
2022/10/03 17:09:43;;;;;;;3.35;1.88;;;19.00;54.00;;;18.21;55.36;101725.22;12255026;19;20372;-84
2022/10/03 17:13:49;;;;;;;4.07;1.60;;;19.00;54.10;;;18.24;55.38;101732.09;12268586;19;20021;-84
2022/10/03 17:18:19;;;;;;;2.63;1.45;;;19.20;54.60;;;18.18;55.26;101735.19;12262813;19;20018;-84
2022/10/03 17:22:34;;;;;;;4.10;1.27;;;19.00;54.20;;;18.13;55.47;101717.84;12262931;19;20006;-84
2022/10/03 17:26:41;;;;;;;3.10;1.00;;;18.90;54.20;;;18.03;55.22;101706.22;12256033;19;20010;-84
2022/10/03 17:30:51;;;;;;;3.10;1.27;;;18.90;54.20;;;17.91;55.25;101685.97;12260798;19;20029;-84
2022/10/03 17:35:45;;;;;;;2.50;1.17;;;19.00;54.30;;;17.91;55.52;101712.41;12258879;19;20027;-83
2022/10/03 17:40:18;;;;;;;4.22;1.25;;;18.90;54.20;;;18.07;55.59;101744.72;12256447;19;20032;-83
2022/10/03 17:44:50;;;;;;;4.25;1.20;;;18.90;54.20;;;18.06;55.52;101734.25;12256939;19;20010;-83
2022/10/03 17:49:11;;;;;;;2.75;1.20;;;18.80;54.20;;;18.02;55.52;101744.19;12251671;19;20491;-83
2022/10/03 17:53:27;;;;;;;4.30;1.30;;;18.80;54.20;;;17.91;55.45;101723.81;12253414;19;20029;-83
2022/10/03 17:57:38;;;;;;;2.63;1.27;;;18.80;54.20;;;17.88;55.61;101716.09;12248721;19;20035;-83
2022/10/03 18:01:44;;;;;;;2.30;1.23;;;18.80;54.20;;;17.79;55.42;101705.31;12252190;19;20022;-83
2022/10/03 18:05:54;;;;;;;2.45;0.98;;;18.70;54.00;;;17.94;55.21;101737.78;12251811;19;20010;-83
2022/10/03 18:09:56;;;;;;;4.35;1.50;;;18.70;54.00;;;17.84;55.26;101732.25;12252521;19;20365;-83
2022/10/03 18:13:58;;;;;;;2.78;1.08;;;18.70;54.00;;;17.85;55.50;101749.84;12250107;19;20003;-83
2022/10/03 18:18:42;;;;;;;2.92;1.10;;;18.90;54.10;;;17.78;55.22;101748.53;12251739;19;20066;-83
2022/10/03 18:22:47;;;;;;;3.00;1.10;;;18.60;54.10;;;17.66;55.17;101740.50;12255230;19;20011;-84
2022/10/03 18:27:39;;;;;;;3.33;1.35;;;18.60;54.10;;;17.70;55.27;101743.75;12254296;19;20014;-83
2022/10/03 18:32:11;;;;;;;5.22;1.77;;;18.50;54.20;;;17.66;55.51;101744.91;12252303;19;20022;-83
2022/10/03 18:36:34;;;;;;;2.42;1.90;;;18.50;54.30;;;17.63;55.29;101746.00;12250148;19;20499;-83
2022/10/03 18:40:57;;;;;;;2.97;1.60;;;18.40;54.40;;;17.57;55.37;101742.91;12249227;19;20025;-83
2022/10/03 18:45:00;;;;;;;2.15;1.38;;;18.40;54.50;;;17.58;55.69;101731.38;12250805;19;20030;-83